sensor_id;sensor_type;location;lat;lon;timestamp;P1;durP1;ratioP1;P2;durP2;ratioP2
19907;SDS011;10116;53.112;7.356;2024-03-07T00:00:07;3.70;;;3.53;;
19907;SDS011;10116;53.112;7.356;2024-03-07T00:02:47;4.43;;;4.13;;
19907;SDS011;10116;53.112;7.356;2024-03-07T00:05:17;4.17;;;3.90;;
19907;SDS011;10116;53.112;7.356;2024-03-07T00:07:44;3.80;;;3.60;;
19907;SDS011;10116;53.112;7.356;2024-03-07T00:10:10;3.70;;;3.50;;
19907;SDS011;10116;53.112;7.356;2024-03-07T00:12:36;4.13;;;3.83;;
19907;SDS011;10116;53.112;7.356;2024-03-07T00:15:06;3.83;;;3.63;;
19907;SDS011;10116;53.112;7.356;2024-03-07T00:17:32;3.90;;;3.70;;
19907;SDS011;10116;53.112;7.356;2024-03-07T00:19:58;4.17;;;3.87;;
19907;SDS011;10116;53.112;7.356;2024-03-07T00:22:24;4.03;;;3.73;;
19907;SDS011;10116;53.112;7.356;2024-03-07T00:24:52;4.17;;;3.97;;
19907;SDS011;10116;53.112;7.356;2024-03-07T00:27:18;3.73;;;3.43;;
19907;SDS011;10116;53.112;7.356;2024-03-07T00:29:45;3.80;;;3.60;;
19907;SDS011;10116;53.112;7.356;2024-03-07T00:32:18;4.03;;;3.73;;
19907;SDS011;10116;53.112;7.356;2024-03-07T00:34:47;3.90;;;3.60;;
19907;SDS011;10116;53.112;7.356;2024-03-07T00:37:13;3.00;;;2.90;;
19907;SDS011;10116;53.112;7.356;2024-03-07T00:39:40;3.47;;;3.20;;
19907;SDS011;10116;53.112;7.356;2024-03-07T00:42:06;3.23;;;3.07;;
19907;SDS011;10116;53.112;7.356;2024-03-07T00:44:32;3.33;;;3.13;;
19907;SDS011;10116;53.112;7.356;2024-03-07T00:46:59;3.63;;;3.43;;
19907;SDS011;10116;53.112;7.356;2024-03-07T00:49:25;3.70;;;3.50;;
19907;SDS011;10116;53.112;7.356;2024-03-07T00:51:50;3.60;;;3.40;;
19907;SDS011;10116;53.112;7.356;2024-03-07T00:54:16;2.93;;;2.83;;
19907;SDS011;10116;53.112;7.356;2024-03-07T00:56:42;4.50;;;3.60;;
19907;SDS011;10116;53.112;7.356;2024-03-07T00:59:08;3.47;;;3.27;;
19907;SDS011;10116;53.112;7.356;2024-03-07T01:01:33;3.67;;;3.47;;
19907;SDS011;10116;53.112;7.356;2024-03-07T01:04:01;3.37;;;3.07;;
19907;SDS011;10116;53.112;7.356;2024-03-07T01:06:27;3.70;;;3.50;;
19907;SDS011;10116;53.112;7.356;2024-03-07T01:08:53;3.10;;;3.00;;
19907;SDS011;10116;53.112;7.356;2024-03-07T01:11:19;3.23;;;3.03;;
19907;SDS011;10116;53.112;7.356;2024-03-07T01:13:45;3.43;;;3.17;;
19907;SDS011;10116;53.112;7.356;2024-03-07T01:16:11;3.50;;;3.30;;
19907;SDS011;10116;53.112;7.356;2024-03-07T01:18:37;3.00;;;2.80;;
19907;SDS011;10116;53.112;7.356;2024-03-07T01:21:03;3.30;;;3.10;;
19907;SDS011;10116;53.112;7.356;2024-03-07T01:23:30;3.10;;;3.00;;
19907;SDS011;10116;53.112;7.356;2024-03-07T01:25:56;2.97;;;2.87;;
19907;SDS011;10116;53.112;7.356;2024-03-07T01:28:23;3.27;;;3.17;;
19907;SDS011;10116;53.112;7.356;2024-03-07T01:30:50;3.57;;;3.37;;
19907;SDS011;10116;53.112;7.356;2024-03-07T01:33:16;2.70;;;2.60;;
19907;SDS011;10116;53.112;7.356;2024-03-07T01:35:41;3.03;;;2.93;;
19907;SDS011;10116;53.112;7.356;2024-03-07T01:38:07;3.83;;;3.53;;
19907;SDS011;10116;53.112;7.356;2024-03-07T01:40:35;3.47;;;3.27;;
19907;SDS011;10116;53.112;7.356;2024-03-07T01:43:01;3.50;;;3.30;;
19907;SDS011;10116;53.112;7.356;2024-03-07T01:45:27;3.20;;;3.00;;
19907;SDS011;10116;53.112;7.356;2024-03-07T01:47:53;3.03;;;2.93;;
19907;SDS011;10116;53.112;7.356;2024-03-07T01:50:22;2.83;;;2.73;;
19907;SDS011;10116;53.112;7.356;2024-03-07T01:52:48;3.40;;;3.13;;
19907;SDS011;10116;53.112;7.356;2024-03-07T01:55:20;2.77;;;2.67;;
19907;SDS011;10116;53.112;7.356;2024-03-07T01:57:47;2.60;;;2.50;;
19907;SDS011;10116;53.112;7.356;2024-03-07T02:00:14;3.13;;;2.93;;
19907;SDS011;10116;53.112;7.356;2024-03-07T02:02:39;3.27;;;3.10;;
19907;SDS011;10116;53.112;7.356;2024-03-07T02:05:06;2.70;;;2.60;;
19907;SDS011;10116;53.112;7.356;2024-03-07T02:07:32;3.00;;;2.80;;
19907;SDS011;10116;53.112;7.356;2024-03-07T02:10:01;2.93;;;2.83;;
19907;SDS011;10116;53.112;7.356;2024-03-07T02:12:28;3.23;;;3.03;;
19907;SDS011;10116;53.112;7.356;2024-03-07T02:14:58;2.60;;;2.50;;
19907;SDS011;10116;53.112;7.356;2024-03-07T02:17:24;2.77;;;2.67;;
19907;SDS011;10116;53.112;7.356;2024-03-07T02:19:53;3.03;;;2.87;;
19907;SDS011;10116;53.112;7.356;2024-03-07T02:22:19;3.13;;;2.93;;
19907;SDS011;10116;53.112;7.356;2024-03-07T02:24:47;3.27;;;2.97;;
19907;SDS011;10116;53.112;7.356;2024-03-07T02:27:13;3.03;;;2.93;;
19907;SDS011;10116;53.112;7.356;2024-03-07T02:29:42;2.83;;;2.73;;
19907;SDS011;10116;53.112;7.356;2024-03-07T02:32:08;3.30;;;3.20;;
19907;SDS011;10116;53.112;7.356;2024-03-07T02:34:35;3.30;;;3.10;;
19907;SDS011;10116;53.112;7.356;2024-03-07T02:37:01;2.83;;;2.63;;
19907;SDS011;10116;53.112;7.356;2024-03-07T02:39:26;2.93;;;2.80;;
19907;SDS011;10116;53.112;7.356;2024-03-07T02:41:52;3.27;;;3.07;;
19907;SDS011;10116;53.112;7.356;2024-03-07T02:44:18;3.00;;;2.90;;
19907;SDS011;10116;53.112;7.356;2024-03-07T02:46:44;3.17;;;2.97;;
19907;SDS011;10116;53.112;7.356;2024-03-07T02:49:10;2.50;;;2.40;;
19907;SDS011;10116;53.112;7.356;2024-03-07T02:51:36;2.80;;;2.60;;
19907;SDS011;10116;53.112;7.356;2024-03-07T02:54:01;2.63;;;2.53;;
19907;SDS011;10116;53.112;7.356;2024-03-07T02:56:30;2.80;;;2.70;;
19907;SDS011;10116;53.112;7.356;2024-03-07T02:58:56;2.87;;;2.77;;
19907;SDS011;10116;53.112;7.356;2024-03-07T03:01:22;2.87;;;2.77;;
19907;SDS011;10116;53.112;7.356;2024-03-07T03:03:47;2.80;;;2.70;;
19907;SDS011;10116;53.112;7.356;2024-03-07T03:06:13;2.87;;;2.77;;
19907;SDS011;10116;53.112;7.356;2024-03-07T03:08:39;2.67;;;2.57;;
19907;SDS011;10116;53.112;7.356;2024-03-07T03:11:04;2.80;;;2.60;;
19907;SDS011;10116;53.112;7.356;2024-03-07T03:13:30;2.70;;;2.50;;
19907;SDS011;10116;53.112;7.356;2024-03-07T03:15:56;2.90;;;2.80;;
19907;SDS011;10116;53.112;7.356;2024-03-07T03:18:22;2.73;;;2.60;;
19907;SDS011;10116;53.112;7.356;2024-03-07T03:20:48;2.67;;;2.57;;
19907;SDS011;10116;53.112;7.356;2024-03-07T03:23:17;2.90;;;2.80;;
19907;SDS011;10116;53.112;7.356;2024-03-07T03:25:45;2.50;;;2.40;;
19907;SDS011;10116;53.112;7.356;2024-03-07T03:28:13;2.53;;;2.43;;
19907;SDS011;10116;53.112;7.356;2024-03-07T03:30:39;2.93;;;2.83;;
19907;SDS011;10116;53.112;7.356;2024-03-07T03:33:06;2.90;;;2.80;;
19907;SDS011;10116;53.112;7.356;2024-03-07T03:35:33;2.53;;;2.43;;
19907;SDS011;10116;53.112;7.356;2024-03-07T03:37:59;2.90;;;2.80;;
19907;SDS011;10116;53.112;7.356;2024-03-07T03:40:25;2.60;;;2.50;;
19907;SDS011;10116;53.112;7.356;2024-03-07T03:42:51;2.47;;;2.37;;
19907;SDS011;10116;53.112;7.356;2024-03-07T03:45:16;3.03;;;2.93;;
19907;SDS011;10116;53.112;7.356;2024-03-07T03:47:43;2.70;;;2.60;;
19907;SDS011;10116;53.112;7.356;2024-03-07T03:50:10;2.60;;;2.50;;
19907;SDS011;10116;53.112;7.356;2024-03-07T03:52:37;2.60;;;2.50;;
19907;SDS011;10116;53.112;7.356;2024-03-07T03:55:04;2.33;;;2.23;;
19907;SDS011;10116;53.112;7.356;2024-03-07T03:57:48;2.63;;;2.53;;
19907;SDS011;10116;53.112;7.356;2024-03-07T04:00:14;2.77;;;2.67;;
19907;SDS011;10116;53.112;7.356;2024-03-07T04:05:12;3.33;;;3.13;;
19907;SDS011;10116;53.112;7.356;2024-03-07T04:07:39;2.77;;;2.67;;
19907;SDS011;10116;53.112;7.356;2024-03-07T04:10:05;2.73;;;2.63;;
19907;SDS011;10116;53.112;7.356;2024-03-07T04:12:35;3.20;;;3.10;;
19907;SDS011;10116;53.112;7.356;2024-03-07T04:15:02;2.80;;;2.70;;
19907;SDS011;10116;53.112;7.356;2024-03-07T04:17:32;2.93;;;2.83;;
19907;SDS011;10116;53.112;7.356;2024-03-07T04:19:59;3.23;;;2.97;;
19907;SDS011;10116;53.112;7.356;2024-03-07T04:22:25;2.63;;;2.53;;
19907;SDS011;10116;53.112;7.356;2024-03-07T04:24:51;3.20;;;3.00;;
19907;SDS011;10116;53.112;7.356;2024-03-07T04:27:20;2.90;;;2.80;;
19907;SDS011;10116;53.112;7.356;2024-03-07T04:29:48;2.70;;;2.60;;
19907;SDS011;10116;53.112;7.356;2024-03-07T04:32:14;3.33;;;3.17;;
19907;SDS011;10116;53.112;7.356;2024-03-07T04:34:40;2.90;;;2.80;;
19907;SDS011;10116;53.112;7.356;2024-03-07T04:37:05;3.13;;;2.90;;
19907;SDS011;10116;53.112;7.356;2024-03-07T04:39:31;2.60;;;2.50;;
19907;SDS011;10116;53.112;7.356;2024-03-07T04:42:00;3.10;;;3.00;;
19907;SDS011;10116;53.112;7.356;2024-03-07T04:44:27;3.53;;;3.43;;
19907;SDS011;10116;53.112;7.356;2024-03-07T04:46:53;3.30;;;3.10;;
19907;SDS011;10116;53.112;7.356;2024-03-07T04:49:25;3.33;;;3.20;;
19907;SDS011;10116;53.112;7.356;2024-03-07T04:51:52;2.70;;;2.60;;
19907;SDS011;10116;53.112;7.356;2024-03-07T04:54:18;4.07;;;3.77;;
19907;SDS011;10116;53.112;7.356;2024-03-07T04:56:45;3.70;;;3.53;;
19907;SDS011;10116;53.112;7.356;2024-03-07T04:59:12;3.10;;;3.00;;
19907;SDS011;10116;53.112;7.356;2024-03-07T05:01:38;3.17;;;2.97;;
19907;SDS011;10116;53.112;7.356;2024-03-07T05:04:14;3.50;;;3.37;;
19907;SDS011;10116;53.112;7.356;2024-03-07T05:06:40;3.50;;;3.30;;
19907;SDS011;10116;53.112;7.356;2024-03-07T05:09:07;3.63;;;3.43;;
19907;SDS011;10116;53.112;7.356;2024-03-07T05:11:34;4.03;;;3.83;;
19907;SDS011;10116;53.112;7.356;2024-03-07T05:14:00;3.40;;;3.30;;
19907;SDS011;10116;53.112;7.356;2024-03-07T05:16:28;3.57;;;3.27;;
19907;SDS011;10116;53.112;7.356;2024-03-07T05:18:54;3.87;;;3.20;;
19907;SDS011;10116;53.112;7.356;2024-03-07T05:21:24;4.13;;;3.83;;
19907;SDS011;10116;53.112;7.356;2024-03-07T05:24:10;3.90;;;3.70;;
19907;SDS011;10116;53.112;7.356;2024-03-07T05:26:36;4.07;;;3.80;;
19907;SDS011;10116;53.112;7.356;2024-03-07T05:29:10;4.10;;;3.90;;
19907;SDS011;10116;53.112;7.356;2024-03-07T05:31:39;4.30;;;4.10;;
19907;SDS011;10116;53.112;7.356;2024-03-07T05:34:14;5.17;;;4.87;;
19907;SDS011;10116;53.112;7.356;2024-03-07T05:36:43;5.30;;;5.00;;
19907;SDS011;10116;53.112;7.356;2024-03-07T05:39:12;5.03;;;4.70;;
19907;SDS011;10116;53.112;7.356;2024-03-07T05:41:40;5.80;;;5.40;;
19907;SDS011;10116;53.112;7.356;2024-03-07T05:44:06;5.90;;;5.50;;
19907;SDS011;10116;53.112;7.356;2024-03-07T05:46:35;5.97;;;5.53;;
19907;SDS011;10116;53.112;7.356;2024-03-07T05:49:02;6.00;;;5.60;;
19907;SDS011;10116;53.112;7.356;2024-03-07T05:51:28;6.43;;;5.93;;
19907;SDS011;10116;53.112;7.356;2024-03-07T05:53:53;6.83;;;6.40;;
19907;SDS011;10116;53.112;7.356;2024-03-07T05:56:19;6.30;;;5.90;;
19907;SDS011;10116;53.112;7.356;2024-03-07T05:58:45;7.00;;;6.40;;
19907;SDS011;10116;53.112;7.356;2024-03-07T06:01:10;6.50;;;6.10;;
19907;SDS011;10116;53.112;7.356;2024-03-07T06:03:36;7.73;;;7.07;;
19907;SDS011;10116;53.112;7.356;2024-03-07T06:06:08;6.43;;;6.03;;
19907;SDS011;10116;53.112;7.356;2024-03-07T06:08:36;7.90;;;7.30;;
19907;SDS011;10116;53.112;7.356;2024-03-07T06:11:03;6.77;;;6.27;;
19907;SDS011;10116;53.112;7.356;2024-03-07T06:13:29;7.93;;;7.33;;
19907;SDS011;10116;53.112;7.356;2024-03-07T06:15:55;7.03;;;6.53;;
19907;SDS011;10116;53.112;7.356;2024-03-07T06:18:21;7.50;;;7.00;;
19907;SDS011;10116;53.112;7.356;2024-03-07T06:20:46;16.13;;;13.27;;
19907;SDS011;10116;53.112;7.356;2024-03-07T06:23:13;9.97;;;9.10;;
19907;SDS011;10116;53.112;7.356;2024-03-07T06:25:41;9.23;;;8.53;;
19907;SDS011;10116;53.112;7.356;2024-03-07T06:28:18;9.63;;;8.77;;
19907;SDS011;10116;53.112;7.356;2024-03-07T06:30:44;9.83;;;9.03;;
19907;SDS011;10116;53.112;7.356;2024-03-07T06:33:11;9.30;;;8.50;;
19907;SDS011;10116;53.112;7.356;2024-03-07T06:35:42;10.23;;;9.33;;
19907;SDS011;10116;53.112;7.356;2024-03-07T06:38:08;9.90;;;9.00;;
19907;SDS011;10116;53.112;7.356;2024-03-07T06:40:35;9.17;;;8.47;;
19907;SDS011;10116;53.112;7.356;2024-03-07T06:43:01;9.57;;;8.80;;
19907;SDS011;10116;53.112;7.356;2024-03-07T06:45:31;9.67;;;8.87;;
19907;SDS011;10116;53.112;7.356;2024-03-07T06:47:57;10.60;;;9.73;;
19907;SDS011;10116;53.112;7.356;2024-03-07T06:50:23;10.37;;;9.57;;
19907;SDS011;10116;53.112;7.356;2024-03-07T06:52:48;9.40;;;8.70;;
19907;SDS011;10116;53.112;7.356;2024-03-07T06:55:18;9.43;;;8.67;;
19907;SDS011;10116;53.112;7.356;2024-03-07T06:57:46;9.17;;;8.37;;
19907;SDS011;10116;53.112;7.356;2024-03-07T07:00:12;8.83;;;8.23;;
19907;SDS011;10116;53.112;7.356;2024-03-07T07:02:43;8.17;;;7.57;;
19907;SDS011;10116;53.112;7.356;2024-03-07T07:05:14;9.03;;;8.33;;
19907;SDS011;10116;53.112;7.356;2024-03-07T07:07:43;9.70;;;8.90;;
19907;SDS011;10116;53.112;7.356;2024-03-07T07:10:12;8.80;;;8.13;;
19907;SDS011;10116;53.112;7.356;2024-03-07T07:12:43;9.33;;;8.43;;
19907;SDS011;10116;53.112;7.356;2024-03-07T07:15:19;8.30;;;7.70;;
19907;SDS011;10116;53.112;7.356;2024-03-07T07:17:46;8.63;;;7.93;;
19907;SDS011;10116;53.112;7.356;2024-03-07T07:20:12;8.20;;;7.60;;
19907;SDS011;10116;53.112;7.356;2024-03-07T07:22:39;8.00;;;7.40;;
19907;SDS011;10116;53.112;7.356;2024-03-07T07:25:06;7.90;;;7.07;;
19907;SDS011;10116;53.112;7.356;2024-03-07T07:27:45;8.77;;;8.03;;
19907;SDS011;10116;53.112;7.356;2024-03-07T07:30:12;8.77;;;8.07;;
19907;SDS011;10116;53.112;7.356;2024-03-07T07:32:39;8.47;;;7.77;;
19907;SDS011;10116;53.112;7.356;2024-03-07T07:35:10;7.90;;;7.30;;
19907;SDS011;10116;53.112;7.356;2024-03-07T07:37:39;7.50;;;6.90;;
19907;SDS011;10116;53.112;7.356;2024-03-07T07:40:19;8.70;;;8.00;;
19907;SDS011;10116;53.112;7.356;2024-03-07T07:42:48;7.90;;;7.30;;
19907;SDS011;10116;53.112;7.356;2024-03-07T07:45:16;7.30;;;6.80;;
19907;SDS011;10116;53.112;7.356;2024-03-07T07:47:44;7.40;;;6.83;;
19907;SDS011;10116;53.112;7.356;2024-03-07T07:50:11;7.37;;;6.73;;
19907;SDS011;10116;53.112;7.356;2024-03-07T07:55:13;7.83;;;7.13;;
19907;SDS011;10116;53.112;7.356;2024-03-07T07:57:45;8.90;;;8.10;;
19907;SDS011;10116;53.112;7.356;2024-03-07T08:00:16;8.10;;;7.40;;
19907;SDS011;10116;53.112;7.356;2024-03-07T08:05:15;7.77;;;7.10;;
19907;SDS011;10116;53.112;7.356;2024-03-07T08:07:43;8.30;;;7.70;;
19907;SDS011;10116;53.112;7.356;2024-03-07T08:10:09;8.20;;;7.50;;
19907;SDS011;10116;53.112;7.356;2024-03-07T08:12:35;7.70;;;7.10;;
19907;SDS011;10116;53.112;7.356;2024-03-07T08:15:02;8.10;;;7.40;;
19907;SDS011;10116;53.112;7.356;2024-03-07T08:17:30;8.33;;;7.70;;
19907;SDS011;10116;53.112;7.356;2024-03-07T08:19:56;8.80;;;8.10;;
19907;SDS011;10116;53.112;7.356;2024-03-07T08:22:22;8.27;;;7.57;;
19907;SDS011;10116;53.112;7.356;2024-03-07T08:24:49;8.73;;;8.00;;
19907;SDS011;10116;53.112;7.356;2024-03-07T08:27:15;7.50;;;6.90;;
19907;SDS011;10116;53.112;7.356;2024-03-07T08:29:40;8.30;;;7.60;;
19907;SDS011;10116;53.112;7.356;2024-03-07T08:32:06;7.37;;;6.87;;
19907;SDS011;10116;53.112;7.356;2024-03-07T08:34:32;7.90;;;7.20;;
19907;SDS011;10116;53.112;7.356;2024-03-07T08:36:58;8.53;;;7.73;;
19907;SDS011;10116;53.112;7.356;2024-03-07T08:39:24;8.43;;;7.73;;
19907;SDS011;10116;53.112;7.356;2024-03-07T08:41:49;8.00;;;7.30;;
19907;SDS011;10116;53.112;7.356;2024-03-07T08:44:15;8.47;;;7.70;;
19907;SDS011;10116;53.112;7.356;2024-03-07T08:46:41;7.10;;;6.50;;
19907;SDS011;10116;53.112;7.356;2024-03-07T08:49:08;6.70;;;6.10;;
19907;SDS011;10116;53.112;7.356;2024-03-07T08:51:36;6.60;;;6.00;;
19907;SDS011;10116;53.112;7.356;2024-03-07T08:54:01;7.53;;;6.83;;
19907;SDS011;10116;53.112;7.356;2024-03-07T08:56:27;7.47;;;6.80;;
19907;SDS011;10116;53.112;7.356;2024-03-07T08:58:53;7.73;;;7.03;;
19907;SDS011;10116;53.112;7.356;2024-03-07T09:01:19;7.40;;;6.70;;
19907;SDS011;10116;53.112;7.356;2024-03-07T09:03:45;6.70;;;6.20;;
19907;SDS011;10116;53.112;7.356;2024-03-07T09:06:10;7.67;;;7.03;;
19907;SDS011;10116;53.112;7.356;2024-03-07T09:08:38;8.03;;;7.30;;
19907;SDS011;10116;53.112;7.356;2024-03-07T09:11:04;7.20;;;6.50;;
19907;SDS011;10116;53.112;7.356;2024-03-07T09:13:29;7.70;;;7.00;;
19907;SDS011;10116;53.112;7.356;2024-03-07T09:15:55;8.40;;;7.53;;
19907;SDS011;10116;53.112;7.356;2024-03-07T09:18:20;7.93;;;7.23;;
19907;SDS011;10116;53.112;7.356;2024-03-07T09:20:49;8.93;;;8.03;;
19907;SDS011;10116;53.112;7.356;2024-03-07T09:23:14;7.50;;;6.80;;
19907;SDS011;10116;53.112;7.356;2024-03-07T09:25:40;7.87;;;7.07;;
19907;SDS011;10116;53.112;7.356;2024-03-07T09:28:07;7.60;;;6.87;;
19907;SDS011;10116;53.112;7.356;2024-03-07T09:30:34;7.13;;;6.53;;
19907;SDS011;10116;53.112;7.356;2024-03-07T09:33:03;7.70;;;6.83;;
19907;SDS011;10116;53.112;7.356;2024-03-07T09:35:29;7.50;;;6.80;;
19907;SDS011;10116;53.112;7.356;2024-03-07T09:37:54;7.90;;;7.10;;
19907;SDS011;10116;53.112;7.356;2024-03-07T09:40:21;7.27;;;6.63;;
19907;SDS011;10116;53.112;7.356;2024-03-07T09:42:50;7.37;;;6.73;;
19907;SDS011;10116;53.112;7.356;2024-03-07T09:45:21;7.13;;;6.53;;
19907;SDS011;10116;53.112;7.356;2024-03-07T09:47:53;7.10;;;6.50;;
19907;SDS011;10116;53.112;7.356;2024-03-07T09:50:19;6.93;;;6.27;;
19907;SDS011;10116;53.112;7.356;2024-03-07T09:52:49;7.20;;;6.50;;
19907;SDS011;10116;53.112;7.356;2024-03-07T09:55:19;7.37;;;6.73;;
19907;SDS011;10116;53.112;7.356;2024-03-07T09:57:47;7.47;;;6.87;;
19907;SDS011;10116;53.112;7.356;2024-03-07T10:00:15;7.13;;;6.60;;
19907;SDS011;10116;53.112;7.356;2024-03-07T10:02:53;7.70;;;7.00;;
19907;SDS011;10116;53.112;7.356;2024-03-07T10:05:23;7.00;;;6.40;;
19907;SDS011;10116;53.112;7.356;2024-03-07T10:07:52;8.43;;;7.73;;
19907;SDS011;10116;53.112;7.356;2024-03-07T10:10:18;7.30;;;6.70;;
19907;SDS011;10116;53.112;7.356;2024-03-07T10:12:44;7.43;;;6.77;;
19907;SDS011;10116;53.112;7.356;2024-03-07T10:15:11;7.43;;;6.83;;
19907;SDS011;10116;53.112;7.356;2024-03-07T10:17:38;7.70;;;7.10;;
19907;SDS011;10116;53.112;7.356;2024-03-07T10:20:08;6.50;;;6.00;;
19907;SDS011;10116;53.112;7.356;2024-03-07T10:22:38;7.30;;;6.60;;
19907;SDS011;10116;53.112;7.356;2024-03-07T10:25:04;8.20;;;7.40;;
19907;SDS011;10116;53.112;7.356;2024-03-07T10:27:30;7.43;;;6.83;;
19907;SDS011;10116;53.112;7.356;2024-03-07T10:29:56;7.73;;;6.80;;
19907;SDS011;10116;53.112;7.356;2024-03-07T10:32:22;7.30;;;6.70;;
19907;SDS011;10116;53.112;7.356;2024-03-07T10:34:52;7.27;;;6.67;;
19907;SDS011;10116;53.112;7.356;2024-03-07T10:37:18;7.00;;;6.40;;
19907;SDS011;10116;53.112;7.356;2024-03-07T10:39:47;7.50;;;6.90;;
19907;SDS011;10116;53.112;7.356;2024-03-07T10:42:16;7.57;;;6.87;;
19907;SDS011;10116;53.112;7.356;2024-03-07T10:44:44;7.10;;;6.57;;
19907;SDS011;10116;53.112;7.356;2024-03-07T10:47:17;8.80;;;7.30;;
19907;SDS011;10116;53.112;7.356;2024-03-07T10:49:59;8.87;;;8.07;;
19907;SDS011;10116;53.112;7.356;2024-03-07T10:52:40;7.70;;;7.00;;
19907;SDS011;10116;53.112;7.356;2024-03-07T11:00:51;7.43;;;6.83;;
19907;SDS011;10116;53.112;7.356;2024-03-07T11:03:21;7.50;;;6.80;;
19907;SDS011;10116;53.112;7.356;2024-03-07T11:05:47;7.03;;;6.43;;
19907;SDS011;10116;53.112;7.356;2024-03-07T11:08:13;7.80;;;6.37;;
19907;SDS011;10116;53.112;7.356;2024-03-07T11:10:41;6.87;;;6.30;;
19907;SDS011;10116;53.112;7.356;2024-03-07T11:13:09;7.03;;;6.43;;
19907;SDS011;10116;53.112;7.356;2024-03-07T11:15:37;6.97;;;6.37;;
19907;SDS011;10116;53.112;7.356;2024-03-07T11:18:09;6.47;;;5.97;;
19907;SDS011;10116;53.112;7.356;2024-03-07T11:20:38;7.37;;;6.70;;
19907;SDS011;10116;53.112;7.356;2024-03-07T11:26:05;7.00;;;6.40;;
19907;SDS011;10116;53.112;7.356;2024-03-07T11:28:35;6.87;;;6.27;;
19907;SDS011;10116;53.112;7.356;2024-03-07T11:31:25;8.30;;;7.07;;
19907;SDS011;10116;53.112;7.356;2024-03-07T11:36:46;6.73;;;6.20;;
19907;SDS011;10116;53.112;7.356;2024-03-07T11:42:08;7.37;;;6.77;;
19907;SDS011;10116;53.112;7.356;2024-03-07T11:44:34;7.67;;;6.97;;
19907;SDS011;10116;53.112;7.356;2024-03-07T11:47:05;7.60;;;6.90;;
19907;SDS011;10116;53.112;7.356;2024-03-07T11:49:38;7.10;;;6.40;;
19907;SDS011;10116;53.112;7.356;2024-03-07T11:55:26;6.60;;;6.07;;
19907;SDS011;10116;53.112;7.356;2024-03-07T11:58:07;7.53;;;6.83;;
19907;SDS011;10116;53.112;7.356;2024-03-07T12:00:37;6.70;;;5.80;;
19907;SDS011;10116;53.112;7.356;2024-03-07T12:03:09;6.87;;;6.23;;
19907;SDS011;10116;53.112;7.356;2024-03-07T12:05:43;8.30;;;6.90;;
19907;SDS011;10116;53.112;7.356;2024-03-07T12:08:12;7.40;;;6.70;;
19907;SDS011;10116;53.112;7.356;2024-03-07T12:10:38;7.40;;;6.80;;
19907;SDS011;10116;53.112;7.356;2024-03-07T12:13:08;7.63;;;6.93;;
19907;SDS011;10116;53.112;7.356;2024-03-07T12:15:38;7.50;;;6.80;;
19907;SDS011;10116;53.112;7.356;2024-03-07T12:18:04;6.40;;;5.90;;
19907;SDS011;10116;53.112;7.356;2024-03-07T12:20:34;6.47;;;5.80;;
19907;SDS011;10116;53.112;7.356;2024-03-07T12:23:04;6.90;;;6.20;;
19907;SDS011;10116;53.112;7.356;2024-03-07T12:25:33;7.03;;;6.43;;
19907;SDS011;10116;53.112;7.356;2024-03-07T12:28:11;6.17;;;5.70;;
19907;SDS011;10116;53.112;7.356;2024-03-07T12:30:48;8.10;;;7.03;;
19907;SDS011;10116;53.112;7.356;2024-03-07T12:33:15;6.93;;;6.33;;
19907;SDS011;10116;53.112;7.356;2024-03-07T12:35:43;6.53;;;6.03;;
19907;SDS011;10116;53.112;7.356;2024-03-07T12:38:09;7.30;;;6.57;;
19907;SDS011;10116;53.112;7.356;2024-03-07T12:40:40;7.63;;;6.93;;
19907;SDS011;10116;53.112;7.356;2024-03-07T12:43:16;6.53;;;5.93;;
19907;SDS011;10116;53.112;7.356;2024-03-07T12:45:43;7.43;;;6.83;;
19907;SDS011;10116;53.112;7.356;2024-03-07T12:48:10;7.77;;;7.07;;
19907;SDS011;10116;53.112;7.356;2024-03-07T12:50:40;7.00;;;6.40;;
19907;SDS011;10116;53.112;7.356;2024-03-07T12:53:06;7.00;;;6.40;;
19907;SDS011;10116;53.112;7.356;2024-03-07T12:55:37;7.30;;;6.60;;
19907;SDS011;10116;53.112;7.356;2024-03-07T12:58:06;7.60;;;6.90;;
19907;SDS011;10116;53.112;7.356;2024-03-07T13:00:34;7.17;;;6.60;;
19907;SDS011;10116;53.112;7.356;2024-03-07T13:03:00;7.00;;;6.40;;
19907;SDS011;10116;53.112;7.356;2024-03-07T13:05:26;7.90;;;7.17;;
19907;SDS011;10116;53.112;7.356;2024-03-07T13:07:52;8.40;;;7.60;;
19907;SDS011;10116;53.112;7.356;2024-03-07T13:10:18;7.80;;;7.07;;
19907;SDS011;10116;53.112;7.356;2024-03-07T13:12:45;7.40;;;6.70;;
19907;SDS011;10116;53.112;7.356;2024-03-07T13:15:14;7.67;;;7.07;;
19907;SDS011;10116;53.112;7.356;2024-03-07T13:17:40;7.70;;;7.10;;
19907;SDS011;10116;53.112;7.356;2024-03-07T13:20:10;8.63;;;7.77;;
19907;SDS011;10116;53.112;7.356;2024-03-07T13:22:42;7.53;;;6.90;;
19907;SDS011;10116;53.112;7.356;2024-03-07T13:25:12;7.40;;;6.80;;
19907;SDS011;10116;53.112;7.356;2024-03-07T13:27:42;7.33;;;6.43;;
19907;SDS011;10116;53.112;7.356;2024-03-07T13:30:09;8.20;;;7.50;;
19907;SDS011;10116;53.112;7.356;2024-03-07T13:32:38;7.87;;;7.17;;
19907;SDS011;10116;53.112;7.356;2024-03-07T13:35:04;8.20;;;7.40;;
19907;SDS011;10116;53.112;7.356;2024-03-07T13:37:36;7.13;;;6.53;;
19907;SDS011;10116;53.112;7.356;2024-03-07T13:40:02;8.17;;;7.33;;
19907;SDS011;10116;53.112;7.356;2024-03-07T13:42:48;6.73;;;6.13;;
19907;SDS011;10116;53.112;7.356;2024-03-07T13:45:16;6.93;;;6.40;;
19907;SDS011;10116;53.112;7.356;2024-03-07T13:47:43;8.37;;;7.57;;
19907;SDS011;10116;53.112;7.356;2024-03-07T13:50:09;7.03;;;6.43;;
19907;SDS011;10116;53.112;7.356;2024-03-07T13:52:37;7.80;;;7.10;;
19907;SDS011;10116;53.112;7.356;2024-03-07T13:55:08;8.13;;;7.43;;
19907;SDS011;10116;53.112;7.356;2024-03-07T13:57:43;7.40;;;6.83;;
19907;SDS011;10116;53.112;7.356;2024-03-07T14:03:19;8.03;;;7.33;;
19907;SDS011;10116;53.112;7.356;2024-03-07T14:06:04;7.80;;;7.20;;
19907;SDS011;10116;53.112;7.356;2024-03-07T14:14:36;6.77;;;6.27;;
19907;SDS011;10116;53.112;7.356;2024-03-07T14:31:29;7.63;;;7.10;;
19907;SDS011;10116;53.112;7.356;2024-03-07T14:34:06;8.03;;;7.43;;
19907;SDS011;10116;53.112;7.356;2024-03-07T14:36:40;9.40;;;8.60;;
19907;SDS011;10116;53.112;7.356;2024-03-07T14:39:10;8.33;;;7.53;;
19907;SDS011;10116;53.112;7.356;2024-03-07T14:41:47;9.00;;;8.10;;
19907;SDS011;10116;53.112;7.356;2024-03-07T14:44:23;8.63;;;7.83;;
19907;SDS011;10116;53.112;7.356;2024-03-07T14:46:52;10.03;;;9.13;;
19907;SDS011;10116;53.112;7.356;2024-03-07T14:49:30;9.03;;;8.13;;
19907;SDS011;10116;53.112;7.356;2024-03-07T14:51:57;9.60;;;8.80;;
19907;SDS011;10116;53.112;7.356;2024-03-07T14:54:22;10.93;;;9.90;;
19907;SDS011;10116;53.112;7.356;2024-03-07T14:56:48;13.07;;;10.77;;
19907;SDS011;10116;53.112;7.356;2024-03-07T14:59:14;18.07;;;11.40;;
19907;SDS011;10116;53.112;7.356;2024-03-07T15:01:40;16.50;;;12.90;;
19907;SDS011;10116;53.112;7.356;2024-03-07T15:04:06;14.13;;;12.63;;
19907;SDS011;10116;53.112;7.356;2024-03-07T15:06:35;13.97;;;12.67;;
19907;SDS011;10116;53.112;7.356;2024-03-07T15:09:01;13.43;;;11.90;;
19907;SDS011;10116;53.112;7.356;2024-03-07T15:11:29;14.33;;;12.17;;
19907;SDS011;10116;53.112;7.356;2024-03-07T15:13:59;13.60;;;11.90;;
19907;SDS011;10116;53.112;7.356;2024-03-07T15:16:26;13.57;;;12.27;;
19907;SDS011;10116;53.112;7.356;2024-03-07T15:18:53;11.93;;;10.93;;
19907;SDS011;10116;53.112;7.356;2024-03-07T15:21:19;12.20;;;11.07;;
19907;SDS011;10116;53.112;7.356;2024-03-07T15:23:45;14.90;;;11.57;;
19907;SDS011;10116;53.112;7.356;2024-03-07T15:26:12;13.10;;;12.00;;
19907;SDS011;10116;53.112;7.356;2024-03-07T15:28:40;14.83;;;12.57;;
19907;SDS011;10116;53.112;7.356;2024-03-07T15:31:06;13.77;;;12.37;;
19907;SDS011;10116;53.112;7.356;2024-03-07T15:33:35;13.40;;;12.20;;
19907;SDS011;10116;53.112;7.356;2024-03-07T15:36:00;13.73;;;11.93;;
19907;SDS011;10116;53.112;7.356;2024-03-07T15:38:27;13.20;;;12.00;;